createdAt,value
2022-08-05T00:01:20.896Z,41.78
2022-08-05T00:04:11.537Z,41.78
2022-08-05T00:06:56.646Z,41.62
2022-08-05T00:09:39.734Z,42.38
2022-08-05T00:12:27.154Z,42.72
2022-08-05T00:15:54.082Z,42.38
2022-08-05T00:18:22.660Z,42.52
2022-08-05T00:21:08.184Z,43.11
2022-08-05T00:24:09.979Z,43.20
2022-08-05T00:26:54.052Z,43.05
2022-08-05T00:29:38.222Z,43.23
2022-08-05T00:32:22.913Z,43.32
2022-08-05T00:35:09.743Z,43.28
2022-08-05T00:37:54.098Z,43.71
2022-08-05T00:40:51.814Z,44.05
2022-08-05T00:43:46.596Z,43.94
2022-08-05T00:46:42.822Z,43.99
2022-08-05T00:49:28.119Z,44.06
2022-08-05T00:52:15.964Z,44.03
2022-08-05T00:55:00.510Z,44.52
2022-08-05T00:57:58.045Z,43.95
2022-08-05T01:00:42.637Z,44.26
2022-08-05T01:03:30.966Z,44.58
2022-08-05T01:06:18.552Z,44.24
2022-08-05T01:09:03.132Z,44.42
2022-08-05T01:11:49.649Z,44.64
2022-08-05T01:14:36.214Z,44.68
2022-08-05T01:17:27.943Z,44.48
2022-08-05T01:20:24.338Z,44.71
2022-08-05T01:23:23.740Z,44.82
2022-08-05T01:26:20.842Z,44.90
2022-08-05T01:29:18.931Z,45.30
2022-08-05T01:32:12.295Z,44.83
2022-08-05T01:35:00.563Z,44.93
2022-08-05T01:37:48.769Z,45.38
2022-08-05T01:40:33.885Z,45.45
2022-08-05T01:43:22.133Z,45.38
2022-08-05T01:46:16.387Z,45.14
2022-08-05T01:49:23.800Z,45.68
2022-08-05T01:52:17.599Z,44.95
2022-08-05T01:55:05.596Z,45.42
2022-08-05T01:58:29.946Z,45.58
2022-08-05T02:00:56.692Z,45.75
2022-08-05T02:03:46.357Z,46.07
2022-08-05T02:06:37.478Z,46.10
2022-08-05T02:09:21.884Z,45.87
2022-08-05T02:12:10.142Z,45.81
2022-08-05T02:14:58.723Z,46.11
2022-08-05T02:18:31.017Z,45.87
2022-08-05T02:21:01.124Z,45.80
2022-08-05T02:23:48.379Z,46.03
2022-08-05T02:26:39.407Z,45.91
2022-08-05T02:29:58.770Z,45.64
2022-08-05T02:32:42.970Z,45.42
2022-08-05T02:35:33.225Z,46.06
2022-08-05T02:38:26.979Z,45.67
2022-08-05T02:41:20.402Z,45.89
2022-08-05T02:44:13.321Z,46.09
2022-08-05T02:47:00.300Z,45.98
2022-08-05T02:49:45.663Z,45.89
2022-08-05T02:52:30.911Z,45.73
2022-08-05T02:55:17.552Z,46.06
2022-08-05T02:58:20.345Z,46.37
2022-08-05T03:01:04.517Z,45.53
2022-08-05T03:04:02.582Z,45.64
2022-08-05T03:06:59.119Z,45.71
2022-08-05T03:09:51.630Z,45.45
2022-08-05T03:12:38.162Z,45.78
2022-08-05T03:15:23.481Z,45.58
2022-08-05T03:18:07.155Z,45.50
2022-08-05T03:20:50.867Z,45.87
2022-08-05T03:23:34.931Z,46.18
2022-08-05T03:26:32.075Z,46.05
2022-08-05T03:29:17.342Z,45.83
2022-08-05T03:32:01.740Z,45.87
2022-08-05T03:34:50.474Z,45.69
2022-08-05T03:37:46.417Z,45.59
2022-08-05T03:40:32.468Z,45.61
2022-08-05T03:44:08.996Z,45.87
2022-08-05T03:46:20.940Z,45.49
2022-08-05T03:49:10.040Z,45.71
2022-08-05T03:52:37.708Z,45.85
2022-08-05T03:55:52.891Z,45.53
2022-08-05T03:58:12.138Z,46.00
2022-08-05T04:00:56.850Z,46.08
2022-08-05T04:04:09.870Z,46.03
2022-08-05T04:06:51.102Z,46.13
2022-08-05T04:09:36.640Z,46.06
2022-08-05T04:12:24.401Z,45.95
2022-08-05T04:15:09.009Z,46.37
2022-08-05T04:18:01.794Z,46.26
2022-08-05T04:20:46.202Z,46.45
2022-08-05T04:23:57.369Z,46.51
2022-08-05T04:26:33.686Z,46.58
2022-08-05T04:29:17.057Z,46.44
2022-08-05T04:32:00.242Z,46.81
2022-08-05T04:34:43.529Z,46.78
2022-08-05T04:37:31.552Z,46.79
2022-08-05T04:40:34.648Z,46.94
2022-08-05T04:43:17.928Z,46.74
2022-08-05T04:46:05.543Z,47.17
2022-08-05T04:48:48.646Z,47.11
2022-08-05T04:51:34.864Z,47.51
2022-08-05T04:54:19.851Z,47.47
2022-08-05T04:57:02.973Z,47.15
2022-08-05T04:59:47.960Z,47.52
2022-08-05T05:02:37.567Z,47.54
2022-08-05T05:05:28.585Z,48.07
2022-08-05T05:08:14.420Z,47.76
2022-08-05T05:11:11.786Z,47.83
2022-08-05T05:13:58.453Z,48.39
2022-08-05T05:16:42.200Z,48.13
2022-08-05T05:19:36.279Z,48.50
2022-08-05T05:22:26.129Z,48.75
2022-08-05T05:25:16.408Z,48.51
2022-08-05T05:28:01.887Z,48.84
2022-08-05T05:30:49.717Z,48.57
2022-08-05T05:33:33.143Z,48.87
2022-08-05T05:36:37.430Z,48.69
2022-08-05T05:39:22.087Z,48.81
2022-08-05T05:42:07.042Z,48.35
2022-08-05T05:44:51.492Z,48.53
2022-08-05T05:48:05.617Z,48.02
2022-08-05T05:50:44.413Z,47.96
2022-08-05T05:53:27.750Z,47.11
2022-08-05T05:56:10.928Z,46.94
2022-08-05T05:58:54.019Z,46.53
2022-08-05T06:01:57.071Z,46.64
2022-08-05T06:04:41.213Z,45.97
2022-08-05T06:07:41.192Z,45.99
2022-08-05T06:10:25.449Z,45.47
2022-08-05T06:13:12.554Z,45.43
2022-08-05T06:16:30.805Z,45.40
2022-08-05T06:19:01.953Z,44.82
2022-08-05T06:21:49.761Z,44.81
2022-08-05T06:24:33.313Z,45.11
2022-08-05T06:28:12.352Z,44.86
2022-08-05T06:30:21.233Z,45.38
2022-08-05T06:33:04.707Z,45.50
2022-08-05T06:36:06.995Z,45.19
2022-08-05T06:38:54.766Z,44.94
2022-08-05T06:41:40.516Z,44.59
2022-08-05T06:44:24.434Z,44.53
2022-08-05T06:47:10.372Z,44.76
2022-08-05T06:50:12.092Z,44.74
2022-08-05T06:53:11.395Z,44.59
2022-08-05T06:55:54.934Z,44.70
2022-08-05T06:58:39.891Z,44.94
2022-08-05T07:01:23.451Z,44.88
2022-08-05T07:04:11.122Z,45.18
2022-08-05T07:06:57.175Z,44.71
2022-08-05T07:09:43.288Z,44.52
2022-08-05T07:12:43.771Z,44.53
2022-08-05T07:16:01.583Z,44.50
2022-08-05T07:18:48.033Z,44.60
2022-08-05T07:21:59.264Z,44.45
2022-08-05T07:24:35.177Z,44.17
2022-08-05T07:27:58.657Z,44.06
2022-08-05T07:30:33.890Z,44.07
2022-08-05T07:33:17.478Z,43.87
2022-08-05T07:36:20.315Z,43.89
2022-08-05T07:39:07.655Z,43.39
2022-08-05T07:42:14.354Z,43.46
2022-08-05T07:44:59.942Z,43.26
2022-08-05T07:47:43.576Z,43.02
2022-08-05T07:50:26.744Z,42.91
2022-08-05T07:53:15.935Z,43.03
2022-08-05T07:56:05.260Z,43.02
2022-08-05T07:59:02.062Z,43.02
2022-08-05T08:01:52.480Z,43.16
2022-08-05T08:04:40.830Z,42.96
2022-08-05T08:07:25.143Z,42.96
2022-08-05T08:10:11.676Z,42.84
2022-08-05T08:12:54.819Z,42.62
2022-08-05T08:16:42.933Z,42.46
2022-08-05T08:18:50.217Z,42.54
2022-08-05T08:21:33.734Z,42.76
2022-08-05T08:24:16.910Z,42.37
2022-08-05T08:27:07.066Z,42.37
2022-08-05T08:30:06.529Z,42.94
2022-08-05T08:32:53.431Z,42.96
2022-08-05T08:35:41.535Z,42.61
2022-08-05T08:38:37.708Z,42.67
2022-08-05T08:41:21.531Z,42.88
2022-08-05T08:45:25.130Z,42.68
2022-08-05T08:47:48.093Z,42.67
2022-08-05T08:50:32.743Z,42.61
2022-08-05T08:53:26.109Z,42.71
2022-08-05T08:56:11.989Z,42.64
2022-08-05T08:58:55.938Z,42.58
2022-08-05T09:01:43.029Z,42.75
2022-08-05T09:04:58.421Z,42.27
2022-08-05T09:07:57.729Z,41.86
2022-08-05T09:10:46.859Z,41.48
2022-08-05T09:13:31.658Z,41.40
2022-08-05T09:16:17.152Z,41.25
2022-08-05T09:19:00.300Z,40.78
2022-08-05T09:22:21.799Z,40.65
2022-08-05T09:24:58.684Z,40.29
2022-08-05T09:28:05.139Z,40.58
2022-08-05T09:30:56.595Z,40.21
2022-08-05T09:33:50.886Z,39.50
2022-08-05T09:36:55.228Z,40.11
2022-08-05T09:39:45.400Z,39.26
2022-08-05T09:42:40.679Z,39.78
2022-08-05T09:46:06.696Z,38.69
2022-08-05T09:48:39.295Z,38.58
2022-08-05T09:51:33.774Z,38.61
2022-08-05T09:54:31.693Z,38.28
2022-08-05T09:57:30.034Z,38.19
2022-08-05T10:00:21.234Z,38.22
2022-08-05T10:03:12.390Z,37.08
2022-08-05T10:06:07.758Z,37.11
2022-08-05T10:09:27.500Z,35.44
2022-08-05T10:12:18.573Z,35.02
2022-08-05T10:15:20.165Z,35.30
2022-08-05T10:18:14.671Z,35.23
2022-08-05T10:21:08.380Z,35.04
2022-08-05T10:23:59.513Z,34.58
2022-08-05T10:26:51.387Z,34.45
2022-08-05T10:30:41.348Z,34.15
2022-08-05T10:33:01.893Z,34.07
2022-08-05T10:35:48.448Z,33.60
2022-08-05T10:38:47.871Z,33.59
2022-08-05T10:41:46.874Z,32.67
2022-08-05T10:44:33.743Z,32.23
2022-08-05T10:47:27.004Z,31.93
2022-08-05T10:50:33.259Z,31.63
2022-08-05T10:53:38.087Z,30.20
2022-08-05T10:56:25.943Z,31.03
2022-08-05T11:00:01.347Z,30.24
2022-08-05T11:02:34.943Z,29.14
2022-08-05T11:05:18.377Z,29.17
2022-08-05T11:08:21.716Z,28.66
2022-08-05T11:11:44.669Z,27.65
2022-08-05T11:15:01.329Z,28.30
2022-08-05T11:17:58.950Z,27.94
2022-08-05T11:20:47.208Z,28.14
2022-08-05T11:24:02.579Z,27.86
2022-08-05T11:26:43.502Z,27.66
2022-08-05T11:29:38.226Z,26.97
2022-08-05T11:32:26.442Z,27.59
2022-08-05T11:35:10.454Z,27.19
2022-08-05T11:38:29.217Z,27.52
2022-08-05T11:41:35.145Z,26.46
2022-08-05T11:44:40.925Z,26.01
2022-08-05T11:47:49.570Z,26.01
2022-08-05T11:50:27.414Z,26.17
2022-08-05T11:53:10.618Z,25.74
2022-08-05T11:55:57.769Z,25.37
2022-08-05T11:58:43.344Z,25.30
2022-08-05T12:01:37.774Z,25.33
2022-08-05T12:04:21.846Z,24.66
2022-08-05T12:07:07.235Z,24.68
2022-08-05T12:09:55.098Z,24.47
2022-08-05T12:12:39.059Z,24.52
2022-08-05T12:15:44.639Z,24.37
2022-08-05T12:18:38.664Z,24.46
2022-08-05T12:21:24.653Z,24.30
2022-08-05T12:24:13.961Z,24.23
2022-08-05T12:27:09.805Z,24.40
2022-08-05T12:30:07.901Z,24.46
2022-08-05T12:32:53.810Z,23.65
2022-08-05T12:35:41.070Z,23.82
2022-08-05T12:38:30.090Z,24.29
2022-08-05T12:41:16.375Z,24.18
2022-08-05T12:44:01.767Z,24.08
2022-08-05T12:46:54.511Z,24.21
2022-08-05T12:50:03.594Z,23.30
2022-08-05T12:52:59.463Z,23.89
2022-08-05T12:55:42.829Z,23.87
2022-08-05T12:58:49.407Z,23.81
2022-08-05T13:02:03.862Z,23.69
2022-08-05T13:04:34.046Z,23.68
2022-08-05T13:07:57.659Z,24.03
2022-08-05T13:10:33.232Z,24.40
2022-08-05T13:14:06.835Z,24.64
2022-08-05T13:16:27.831Z,24.64
2022-08-05T13:19:14.087Z,24.36
2022-08-05T13:21:59.178Z,24.23
2022-08-05T13:24:57.263Z,24.79
2022-08-05T13:27:50.251Z,24.77
2022-08-05T13:30:39.095Z,24.16
2022-08-05T13:34:22.982Z,23.93
2022-08-05T13:36:25.775Z,23.98
2022-08-05T13:40:13.027Z,24.31
2022-08-05T13:42:14.044Z,24.06
2022-08-05T13:44:59.396Z,23.97
2022-08-05T13:48:08.854Z,24.03
2022-08-05T13:50:45.597Z,23.85
2022-08-05T13:53:31.161Z,23.87
2022-08-05T13:56:18.793Z,23.87
2022-08-05T13:59:06.118Z,23.83
2022-08-05T14:02:04.909Z,23.48
2022-08-05T14:05:11.362Z,23.61
2022-08-05T14:08:03.159Z,23.31
2022-08-05T14:10:50.328Z,23.81
2022-08-05T14:13:33.438Z,23.69
2022-08-05T14:16:19.225Z,23.13
2022-08-05T14:19:04.589Z,22.93
2022-08-05T14:22:08.936Z,23.02
2022-08-05T14:24:51.370Z,22.59
2022-08-05T14:27:34.529Z,22.48
2022-08-05T14:30:26.444Z,22.16
2022-08-05T14:33:10.621Z,22.53
2022-08-05T14:36:01.450Z,22.24
2022-08-05T14:38:45.236Z,22.04
2022-08-05T14:41:28.392Z,21.64
2022-08-05T14:44:20.051Z,22.15
2022-08-05T14:47:03.862Z,21.38
2022-08-05T14:49:59.745Z,21.51
2022-08-05T14:52:53.115Z,21.98
2022-08-05T14:55:41.020Z,22.20
2022-08-05T14:58:23.935Z,21.50
2022-08-05T15:01:07.260Z,21.60
2022-08-05T15:03:59.386Z,22.55
2022-08-05T15:06:49.258Z,22.37
2022-08-05T15:09:51.890Z,22.59
2022-08-05T15:12:59.732Z,23.08
2022-08-05T15:15:55.324Z,22.46
2022-08-05T15:18:39.188Z,22.91
2022-08-05T15:21:24.743Z,23.40
2022-08-05T15:24:14.199Z,23.46
2022-08-05T15:27:01.102Z,23.79
2022-08-05T15:29:44.180Z,23.91
2022-08-05T15:32:28.837Z,23.91
2022-08-05T15:35:12.443Z,24.69
2022-08-05T15:38:32.741Z,24.50
2022-08-05T15:41:22.672Z,25.23
2022-08-05T15:44:03.893Z,25.12
2022-08-05T15:46:47.465Z,25.38
2022-08-05T15:49:48.183Z,25.87
2022-08-05T15:52:52.761Z,25.58
2022-08-05T15:56:04.227Z,25.99
2022-08-05T15:58:41.352Z,26.18
2022-08-05T16:01:29.538Z,26.13
2022-08-05T16:04:25.489Z,26.25
2022-08-05T16:07:10.555Z,26.15
2022-08-05T16:09:54.312Z,26.30
2022-08-05T16:12:37.371Z,26.40
2022-08-05T16:15:21.771Z,26.75
2022-08-05T16:18:09.198Z,27.09
2022-08-05T16:20:54.171Z,27.32
2022-08-05T16:23:54.130Z,27.33
2022-08-05T16:26:51.156Z,27.08
2022-08-05T16:29:37.095Z,27.52
2022-08-05T16:32:23.662Z,27.72
2022-08-05T16:35:12.885Z,28.00
2022-08-05T16:38:02.533Z,28.07
2022-08-05T16:41:01.422Z,28.58
2022-08-05T16:43:44.747Z,28.74
2022-08-05T16:46:28.448Z,28.83
2022-08-05T16:49:12.285Z,29.12
2022-08-05T16:51:58.613Z,29.03
2022-08-05T16:54:42.085Z,29.22
2022-08-05T16:57:39.915Z,29.42
2022-08-05T17:00:34.907Z,29.24
2022-08-05T17:03:21.167Z,30.19
2022-08-05T17:06:04.698Z,30.34
2022-08-05T17:08:52.973Z,29.76
2022-08-05T17:11:48.849Z,29.96
2022-08-05T17:14:38.123Z,30.31
2022-08-05T17:17:22.572Z,30.56
2022-08-05T17:20:09.203Z,30.74
2022-08-05T17:22:58.799Z,31.25
2022-08-05T17:25:43.280Z,32.07
2022-08-05T17:28:26.418Z,31.75
2022-08-05T17:31:24.512Z,31.54
2022-08-05T17:34:17.943Z,31.83
2022-08-05T17:37:01.641Z,32.08
2022-08-05T17:39:44.750Z,32.19
2022-08-05T17:42:32.971Z,32.70
2022-08-05T17:45:20.095Z,32.94
2022-08-05T17:48:05.764Z,32.91
2022-08-05T17:50:48.785Z,34.25
2022-08-05T17:53:33.020Z,33.27
2022-08-05T17:56:19.277Z,33.74
2022-08-05T17:59:03.646Z,34.32
2022-08-05T18:01:50.394Z,34.34
2022-08-05T18:04:33.858Z,34.62
2022-08-05T18:07:41.528Z,34.54
2022-08-05T18:10:25.554Z,34.37
2022-08-05T18:13:12.247Z,34.52
2022-08-05T18:15:57.802Z,34.68
2022-08-05T18:18:47.984Z,34.56
2022-08-05T18:22:09.245Z,34.62
2022-08-05T18:24:37.748Z,34.88
2022-08-05T18:27:22.904Z,34.99
2022-08-05T18:30:06.988Z,34.82
2022-08-05T18:33:00.443Z,34.56
2022-08-05T18:36:00.960Z,34.88
2022-08-05T18:38:47.867Z,34.41
2022-08-05T18:41:55.808Z,34.52
2022-08-05T18:44:51.410Z,35.25
2022-08-05T18:47:38.911Z,35.07
2022-08-05T18:50:42.187Z,34.88
2022-08-05T18:53:32.275Z,34.42
2022-08-05T18:56:21.803Z,34.65
2022-08-05T18:59:42.694Z,34.91
2022-08-05T19:02:28.164Z,34.98
2022-08-05T19:06:12.628Z,35.21
2022-08-05T19:08:16.334Z,35.69
2022-08-05T19:11:04.812Z,35.98
2022-08-05T19:13:48.320Z,35.40
2022-08-05T19:16:46.785Z,36.20
2022-08-05T19:19:30.698Z,35.86
2022-08-05T19:22:17.275Z,36.27
2022-08-05T19:25:02.815Z,36.35
2022-08-05T19:27:46.331Z,36.23
2022-08-05T19:30:33.064Z,36.14
2022-08-05T19:33:16.974Z,36.11
2022-08-05T19:36:17.268Z,36.36
2022-08-05T19:39:02.013Z,37.18
2022-08-05T19:42:06.486Z,37.14
2022-08-05T19:44:50.941Z,37.23
2022-08-05T19:47:34.213Z,37.84
2022-08-05T19:50:21.082Z,37.86
2022-08-05T19:53:09.502Z,37.95
2022-08-05T19:56:14.804Z,38.12
2022-08-05T19:58:58.284Z,38.54
2022-08-05T20:02:02.238Z,38.57
2022-08-05T20:04:46.459Z,38.71
2022-08-05T20:07:45.888Z,39.20
2022-08-05T20:10:31.560Z,39.39
2022-08-05T20:13:15.794Z,39.53
2022-08-05T20:16:00.187Z,39.60
2022-08-05T20:18:43.323Z,39.74
2022-08-05T20:21:28.705Z,39.62
2022-08-05T20:24:14.374Z,39.79
2022-08-05T20:26:59.240Z,39.95
2022-08-05T20:29:42.584Z,39.59
2022-08-05T20:32:45.459Z,39.41
2022-08-05T20:35:29.599Z,39.61
2022-08-05T20:38:26.733Z,39.62
2022-08-05T20:41:11.108Z,39.55
2022-08-05T20:44:17.710Z,39.88
2022-08-05T20:47:06.764Z,39.60
2022-08-05T20:49:52.130Z,39.54
2022-08-05T20:52:35.354Z,39.74
2022-08-05T20:55:56.341Z,39.24
2022-08-05T20:58:21.959Z,39.38
2022-08-05T21:01:05.566Z,39.88
2022-08-05T21:03:48.919Z,39.71
2022-08-05T21:06:33.369Z,40.15
2022-08-05T21:09:17.361Z,40.92
2022-08-05T21:12:10.127Z,41.95
2022-08-05T21:14:54.882Z,43.16
2022-08-05T21:17:38.059Z,43.41
2022-08-05T21:20:33.326Z,44.27
2022-08-05T21:23:18.165Z,45.16
2022-08-05T21:26:01.215Z,46.78
2022-08-05T21:28:47.737Z,47.90
2022-08-05T21:31:40.928Z,48.83
2022-08-05T21:34:24.926Z,50.28
2022-08-05T21:37:08.778Z,52.37
2022-08-05T21:39:53.379Z,51.90
2022-08-05T21:42:43.825Z,53.61
2022-08-05T21:45:51.553Z,54.02
2022-08-05T21:48:31.741Z,55.47
2022-08-05T21:52:15.992Z,57.39
2022-08-05T21:54:18.075Z,57.68
2022-08-05T21:57:30.810Z,59.42
2022-08-05T22:00:15.901Z,58.81
2022-08-05T22:02:59.815Z,59.12
2022-08-05T22:05:48.656Z,59.41
2022-08-05T22:08:32.382Z,59.49
2022-08-05T22:11:15.922Z,59.56
2022-08-05T22:14:32.516Z,60.42
2022-08-05T22:17:06.790Z,60.33
2022-08-05T22:20:02.938Z,60.55
2022-08-05T22:23:16.922Z,59.62
2022-08-05T22:26:17.733Z,59.62
2022-08-05T22:29:05.185Z,59.87
2022-08-05T22:31:55.171Z,60.00
2022-08-05T22:34:42.681Z,60.01
2022-08-05T22:37:25.782Z,60.15
2022-08-05T22:40:30.709Z,60.54
2022-08-05T22:43:13.941Z,60.99
2022-08-05T22:45:58.425Z,61.46
2022-08-05T22:48:41.766Z,62.65
2022-08-05T22:52:06.018Z,61.60
2022-08-05T22:54:27.870Z,61.96
2022-08-05T22:57:11.803Z,62.48
2022-08-05T22:59:54.897Z,62.49
2022-08-05T23:02:40.178Z,62.48
2022-08-05T23:05:30.193Z,62.93
2022-08-05T23:08:19.080Z,62.66
2022-08-05T23:11:02.183Z,62.63
2022-08-05T23:13:45.201Z,62.60
2022-08-05T23:16:52.170Z,62.79
2022-08-05T23:19:38.610Z,62.42
2022-08-05T23:22:31.017Z,62.47
2022-08-05T23:25:17.103Z,62.70
2022-08-05T23:28:17.557Z,62.89
2022-08-05T23:31:16.176Z,62.94
2022-08-05T23:34:05.012Z,62.95
2022-08-05T23:36:50.999Z,63.49
2022-08-05T23:39:53.358Z,63.49
2022-08-05T23:42:37.893Z,63.65
2022-08-05T23:45:21.101Z,63.99
2022-08-05T23:48:07.358Z,64.39
2022-08-05T23:50:52.550Z,64.48
2022-08-05T23:53:46.363Z,65.06
2022-08-05T23:56:30.161Z,64.91
2022-08-05T23:59:13.737Z,64.53
